createdAt,value
2022-08-23T00:02:12.847Z,24.18
2022-08-23T00:04:55.772Z,24.18
2022-08-23T00:07:40.888Z,24.19
2022-08-23T00:10:09.666Z,24.19
2022-08-23T00:12:36.375Z,24.17
2022-08-23T00:15:04.420Z,24.18
2022-08-23T00:17:34.766Z,24.17
2022-08-23T00:20:06.762Z,24.19
2022-08-23T00:22:33.489Z,24.19
2022-08-23T00:24:59.967Z,24.19
2022-08-23T00:27:26.966Z,24.19
2022-08-23T00:29:55.643Z,24.20
2022-08-23T00:32:33.932Z,24.21
2022-08-23T00:35:01.589Z,24.21
2022-08-23T00:37:29.861Z,24.22
2022-08-23T00:39:56.330Z,24.22
2022-08-23T00:43:12.395Z,24.22
2022-08-23T00:46:18.637Z,24.23
2022-08-23T00:48:46.219Z,24.20
2022-08-23T00:51:18.908Z,24.22
2022-08-23T00:53:52.604Z,24.22
2022-08-23T00:56:22.652Z,24.20
2022-08-23T00:58:49.589Z,24.20
2022-08-23T01:01:17.827Z,24.18
2022-08-23T01:03:49.747Z,24.18
2022-08-23T01:06:34.471Z,24.18
2022-08-23T01:09:07.687Z,24.17
2022-08-23T01:11:38.346Z,24.16
2022-08-23T01:14:15.106Z,24.14
2022-08-23T01:16:49.530Z,24.10
2022-08-23T01:19:25.141Z,24.08
2022-08-23T01:22:12.927Z,24.06
2022-08-23T01:24:59.793Z,24.01
2022-08-23T01:27:28.101Z,23.96
2022-08-23T01:29:54.556Z,23.93
2022-08-23T01:32:21.381Z,23.90
2022-08-23T01:34:51.847Z,23.86
2022-08-23T01:37:20.275Z,23.82
2022-08-23T01:39:46.803Z,23.79
2022-08-23T01:42:13.309Z,23.75
2022-08-23T01:44:39.797Z,23.73
2022-08-23T01:47:07.758Z,23.70
2022-08-23T01:49:34.876Z,23.67
2022-08-23T01:52:01.389Z,23.64
2022-08-23T01:54:27.866Z,23.63
2022-08-23T01:56:54.405Z,23.61
2022-08-23T01:59:20.922Z,23.59
2022-08-23T02:01:47.687Z,23.58
2022-08-23T02:04:14.237Z,23.56
2022-08-23T02:06:40.960Z,23.55
2022-08-23T02:09:17.435Z,23.54
2022-08-23T02:11:44.825Z,23.53
2022-08-23T02:14:14.642Z,23.52
2022-08-23T02:17:03.114Z,23.52
2022-08-23T02:19:32.382Z,23.50
2022-08-23T02:21:58.888Z,23.49
2022-08-23T02:24:26.326Z,23.48
2022-08-23T02:26:57.042Z,23.47
2022-08-23T02:29:25.339Z,23.45
2022-08-23T02:31:53.174Z,23.45
2022-08-23T02:34:20.064Z,23.43
2022-08-23T02:36:47.502Z,23.42
2022-08-23T02:39:16.701Z,23.40
2022-08-23T02:41:43.999Z,23.39
2022-08-23T02:44:11.159Z,23.37
2022-08-23T02:46:38.669Z,23.35
2022-08-23T02:49:05.313Z,23.34
2022-08-23T02:51:32.870Z,23.32
2022-08-23T02:53:59.419Z,23.31
2022-08-23T02:56:25.851Z,23.28
2022-08-23T02:58:54.488Z,23.26
2022-08-23T03:01:30.511Z,23.25
2022-08-23T03:03:58.361Z,23.21
2022-08-23T03:06:26.514Z,23.19
2022-08-23T03:08:54.782Z,23.17
2022-08-23T03:11:22.001Z,23.13
2022-08-23T03:13:49.171Z,23.12
2022-08-23T03:16:16.295Z,23.08
2022-08-23T03:18:42.762Z,23.06
2022-08-23T03:21:09.987Z,23.03
2022-08-23T03:23:37.403Z,23.01
2022-08-23T03:26:06.318Z,22.98
2022-08-23T03:28:34.942Z,22.95
2022-08-23T03:31:01.519Z,22.92
2022-08-23T03:33:28.097Z,22.89
2022-08-23T03:35:59.607Z,22.88
2022-08-23T03:38:26.094Z,22.86
2022-08-23T03:40:53.973Z,22.83
2022-08-23T03:43:21.159Z,22.81
2022-08-23T03:45:47.646Z,22.79
2022-08-23T03:48:14.090Z,22.78
2022-08-23T03:50:40.541Z,22.77
2022-08-23T03:53:07.217Z,22.75
2022-08-23T03:55:38.547Z,22.73
2022-08-23T03:58:09.523Z,22.72
2022-08-23T04:00:36.005Z,22.71
2022-08-23T04:03:03.268Z,22.70
2022-08-23T04:05:29.790Z,22.69
2022-08-23T04:07:56.286Z,22.68
2022-08-23T04:10:22.754Z,22.66
2022-08-23T04:12:50.199Z,22.65
2022-08-23T04:15:18.591Z,22.64
2022-08-23T04:17:45.046Z,22.63
2022-08-23T04:20:11.727Z,22.62
2022-08-23T04:22:38.333Z,22.61
2022-08-23T04:25:05.418Z,22.60
2022-08-23T04:27:52.036Z,22.60
2022-08-23T04:30:20.101Z,22.59
2022-08-23T04:32:47.711Z,22.56
2022-08-23T04:35:15.132Z,22.56
2022-08-23T04:37:41.951Z,22.56
2022-08-23T04:40:28.024Z,22.55
2022-08-23T04:42:54.485Z,22.54
2022-08-23T04:45:20.919Z,22.54
2022-08-23T04:47:47.572Z,22.53
2022-08-23T04:50:14.026Z,22.52
2022-08-23T04:52:41.177Z,22.52
2022-08-23T04:55:07.835Z,22.53
2022-08-23T04:57:35.225Z,22.54
2022-08-23T05:00:02.003Z,22.54
2022-08-23T05:02:28.411Z,22.54
2022-08-23T05:04:54.862Z,22.55
2022-08-23T05:07:21.653Z,22.57
2022-08-23T05:10:10.341Z,22.62
2022-08-23T05:12:36.936Z,22.66
2022-08-23T05:15:04.339Z,22.71
2022-08-23T05:17:30.944Z,22.76
2022-08-23T05:19:57.378Z,22.82
2022-08-23T05:22:24.133Z,22.87
2022-08-23T05:24:50.566Z,22.95
2022-08-23T05:27:17.041Z,22.99
2022-08-23T05:29:43.547Z,23.06
2022-08-23T05:32:10.675Z,23.13
2022-08-23T05:34:37.481Z,23.18
2022-08-23T05:37:03.915Z,23.24
2022-08-23T05:39:36.196Z,23.31
2022-08-23T05:42:04.142Z,23.37
2022-08-23T05:44:30.641Z,23.43
2022-08-23T05:47:04.321Z,23.50
2022-08-23T05:49:37.226Z,23.54
2022-08-23T05:52:06.210Z,23.59
2022-08-23T05:54:33.398Z,23.63
2022-08-23T05:56:59.882Z,23.67
2022-08-23T05:59:26.402Z,23.72
2022-08-23T06:01:52.864Z,23.76
2022-08-23T06:04:19.862Z,23.81
2022-08-23T06:06:46.299Z,23.86
2022-08-23T06:09:15.653Z,23.90
2022-08-23T06:11:44.684Z,23.94
2022-08-23T06:14:11.696Z,23.99
2022-08-23T06:16:42.141Z,24.03
2022-08-23T06:19:09.454Z,24.06
2022-08-23T06:21:37.177Z,24.10
2022-08-23T06:24:04.057Z,24.16
2022-08-23T06:26:38.227Z,24.20
2022-08-23T06:29:08.947Z,24.24
2022-08-23T06:31:46.921Z,24.29
2022-08-23T06:34:26.920Z,24.34
2022-08-23T06:36:56.140Z,24.38
2022-08-23T06:39:26.486Z,24.42
2022-08-23T06:41:53.492Z,24.47
2022-08-23T06:44:20.486Z,24.51
2022-08-23T06:46:48.756Z,24.57
2022-08-23T06:49:16.238Z,24.65
2022-08-23T06:51:48.125Z,24.71
2022-08-23T06:54:16.180Z,24.77
2022-08-23T06:56:43.897Z,24.85
2022-08-23T06:59:11.691Z,24.92
2022-08-23T07:01:46.828Z,25.01
2022-08-23T07:04:16.447Z,25.07
2022-08-23T07:06:43.806Z,25.14
2022-08-23T07:09:10.318Z,25.24
2022-08-23T07:11:36.820Z,25.31
2022-08-23T07:14:07.051Z,25.40
2022-08-23T07:16:36.974Z,25.48
2022-08-23T07:19:03.940Z,25.55
2022-08-23T07:21:30.521Z,25.65
2022-08-23T07:23:57.026Z,25.71
2022-08-23T07:26:24.238Z,25.80
2022-08-23T07:28:51.254Z,25.88
2022-08-23T07:31:20.493Z,25.95
2022-08-23T07:33:48.195Z,26.02
2022-08-23T07:36:16.821Z,26.08
2022-08-23T07:38:45.470Z,26.13
2022-08-23T07:41:13.194Z,26.19
2022-08-23T07:43:39.902Z,26.24
2022-08-23T07:46:08.559Z,26.30
2022-08-23T07:48:52.936Z,26.36
2022-08-23T07:51:20.601Z,26.42
2022-08-23T07:53:47.488Z,26.48
2022-08-23T07:56:16.061Z,26.56
2022-08-23T07:58:42.539Z,26.62
2022-08-23T08:01:19.356Z,26.70
2022-08-23T08:03:47.970Z,26.77
2022-08-23T08:06:21.622Z,26.84
2022-08-23T08:08:48.852Z,26.91
2022-08-23T08:11:20.588Z,27.00
2022-08-23T08:13:48.871Z,27.05
2022-08-23T08:16:27.446Z,27.13
2022-08-23T08:18:56.127Z,27.19
2022-08-23T08:21:22.711Z,27.26
2022-08-23T08:23:49.940Z,27.33
2022-08-23T08:26:16.839Z,27.38
2022-08-23T08:28:49.566Z,27.46
2022-08-23T08:31:16.394Z,27.53
2022-08-23T08:33:42.889Z,27.61
2022-08-23T08:36:28.244Z,27.69
2022-08-23T08:38:58.743Z,27.76
2022-08-23T08:42:03.969Z,27.87
2022-08-23T08:44:42.005Z,27.96
2022-08-23T08:47:19.099Z,28.02
2022-08-23T08:50:16.560Z,28.12
2022-08-23T08:52:50.752Z,28.20
2022-08-23T08:55:31.733Z,28.26
2022-08-23T08:57:59.962Z,28.33
2022-08-23T09:00:37.823Z,28.41
2022-08-23T09:03:14.420Z,28.51
2022-08-23T09:06:00.107Z,28.60
2022-08-23T09:08:52.081Z,28.70
2022-08-23T09:11:28.987Z,28.78
2022-08-23T09:13:55.926Z,28.84
2022-08-23T09:16:53.161Z,28.92
2022-08-23T09:19:22.652Z,28.98
2022-08-23T09:21:58.158Z,29.05
2022-08-23T09:24:25.433Z,29.11
2022-08-23T09:26:53.912Z,29.16
2022-08-23T09:29:25.944Z,29.23
2022-08-23T09:32:02.033Z,29.31
2022-08-23T09:34:35.180Z,29.38
2022-08-23T09:37:09.855Z,29.46
2022-08-23T09:39:39.739Z,29.52
2022-08-23T09:42:36.465Z,29.61
2022-08-23T09:45:33.130Z,29.70
2022-08-23T09:48:02.260Z,29.76
2022-08-23T09:50:39.239Z,29.84
2022-08-23T09:53:15.011Z,29.92
2022-08-23T09:55:42.830Z,30.01
2022-08-23T09:58:32.205Z,30.10
2022-08-23T10:01:18.422Z,30.18
2022-08-23T10:03:46.262Z,30.24
2022-08-23T10:06:31.083Z,30.28
2022-08-23T10:09:00.965Z,30.34
2022-08-23T10:11:31.907Z,30.41
2022-08-23T10:13:58.317Z,30.47
2022-08-23T10:16:39.514Z,30.54
2022-08-23T10:19:13.449Z,30.60
2022-08-23T10:21:53.223Z,30.69
2022-08-23T10:24:44.585Z,30.78
2022-08-23T10:28:08.166Z,30.86
2022-08-23T10:31:07.124Z,30.98
2022-08-23T10:33:50.101Z,31.06
2022-08-23T10:36:40.951Z,31.13
2022-08-23T10:39:18.747Z,31.23
2022-08-23T10:42:12.170Z,31.31
2022-08-23T10:44:58.788Z,31.38
2022-08-23T10:47:28.214Z,31.43
2022-08-23T10:49:58.169Z,31.51
2022-08-23T10:52:33.616Z,31.59
2022-08-23T10:55:16.927Z,31.65
2022-08-23T10:57:46.851Z,31.73
2022-08-23T11:00:23.173Z,31.80
2022-08-23T11:02:50.749Z,31.85
2022-08-23T11:05:33.534Z,31.92
2022-08-23T11:08:05.018Z,32.00
2022-08-23T11:10:33.771Z,32.07
2022-08-23T11:13:07.786Z,32.15
2022-08-23T11:15:45.128Z,32.22
2022-08-23T11:18:38.658Z,32.28
2022-08-23T11:21:17.330Z,32.32
2022-08-23T11:23:59.225Z,32.38
2022-08-23T11:26:31.255Z,32.41
2022-08-23T11:29:23.413Z,32.48
2022-08-23T11:32:08.456Z,32.52
2022-08-23T11:34:49.918Z,32.61
2022-08-23T11:37:19.135Z,32.66
2022-08-23T11:39:57.989Z,32.74
2022-08-23T11:42:35.122Z,32.82
2022-08-23T11:45:03.967Z,32.90
2022-08-23T11:47:42.191Z,32.99
2022-08-23T11:50:28.006Z,33.08
2022-08-23T11:53:13.956Z,33.16
2022-08-23T11:55:56.217Z,33.25
2022-08-23T11:58:28.029Z,33.34
2022-08-23T12:01:10.147Z,33.43
2022-08-23T12:04:09.851Z,33.49
2022-08-23T12:06:39.127Z,33.55
2022-08-23T12:09:25.393Z,33.61
2022-08-23T12:11:55.062Z,33.64
2022-08-23T12:14:30.710Z,33.70
2022-08-23T12:16:58.618Z,33.77
2022-08-23T12:19:52.059Z,33.84
2022-08-23T12:22:23.980Z,33.90
2022-08-23T12:25:00.922Z,33.92
2022-08-23T12:27:39.166Z,33.97
2022-08-23T12:30:13.681Z,33.99
2022-08-23T12:32:55.228Z,34.03
2022-08-23T12:35:52.147Z,34.08
2022-08-23T12:38:53.860Z,34.12
2022-08-23T12:41:32.389Z,34.18
2022-08-23T12:44:06.131Z,34.23
2022-08-23T12:46:40.038Z,34.26
2022-08-23T12:49:10.539Z,34.30
2022-08-23T12:51:50.188Z,34.33
2022-08-23T12:54:20.581Z,34.36
2022-08-23T12:56:53.818Z,34.38
2022-08-23T12:59:35.508Z,34.41
2022-08-23T13:02:11.802Z,34.44
2022-08-23T13:04:40.201Z,34.45
2022-08-23T13:07:10.844Z,34.49
2022-08-23T13:09:40.789Z,34.53
2022-08-23T13:12:09.485Z,34.59
2022-08-23T13:14:50.715Z,34.66
2022-08-23T13:17:19.136Z,34.70
2022-08-23T13:19:48.247Z,34.75
2022-08-23T13:22:23.680Z,34.80
2022-08-23T13:25:24.777Z,34.86
2022-08-23T13:27:45.422Z,34.92
2022-08-23T13:30:15.650Z,34.97
2022-08-23T13:32:46.701Z,34.99
2022-08-23T13:35:31.153Z,35.00
2022-08-23T13:38:06.746Z,35.02
2022-08-23T13:40:58.098Z,35.06
2022-08-23T13:43:44.805Z,35.13
2022-08-23T13:46:14.568Z,35.17
2022-08-23T13:49:03.042Z,35.23
2022-08-23T13:51:40.192Z,35.27
2022-08-23T13:54:09.534Z,35.34
2022-08-23T13:56:44.264Z,35.41
2022-08-23T13:59:31.775Z,35.45
2022-08-23T14:02:06.131Z,35.47
2022-08-23T14:04:33.211Z,35.47
2022-08-23T14:06:59.867Z,35.48
2022-08-23T14:09:26.554Z,35.50
2022-08-23T14:11:57.686Z,35.52
2022-08-23T14:14:25.003Z,35.54
2022-08-23T14:16:54.197Z,35.55
2022-08-23T14:22:07.174Z,35.63
2022-08-23T14:24:33.627Z,35.68
2022-08-23T14:27:00.757Z,35.70
2022-08-23T14:29:28.287Z,35.73
2022-08-23T14:31:56.359Z,35.75
2022-08-23T14:34:22.875Z,35.76
2022-08-23T14:39:37.987Z,35.77
2022-08-23T14:42:05.767Z,35.75
2022-08-23T14:44:35.852Z,35.71
2022-08-23T14:47:02.714Z,35.69
2022-08-23T14:49:29.126Z,35.67
2022-08-23T14:51:55.605Z,35.65
2022-08-23T14:54:24.898Z,35.63
2022-08-23T14:56:53.289Z,35.59
2022-08-23T14:59:20.421Z,35.57
2022-08-23T15:01:49.266Z,35.56
2022-08-23T15:04:18.794Z,35.55
2022-08-23T15:07:07.018Z,35.53
2022-08-23T15:09:33.433Z,35.55
2022-08-23T15:14:46.640Z,35.53
2022-08-23T15:17:13.915Z,35.49
2022-08-23T15:19:40.578Z,35.46
2022-08-23T15:22:18.538Z,35.44
2022-08-23T15:24:48.880Z,35.44
2022-08-23T15:27:15.535Z,35.44
2022-08-23T15:29:42.001Z,35.47
2022-08-23T15:32:10.146Z,35.48
2022-08-23T15:34:40.020Z,35.48
2022-08-23T15:37:12.029Z,35.49
2022-08-23T15:39:38.512Z,35.47
2022-08-23T15:42:05.194Z,35.48
2022-08-23T15:44:31.698Z,35.48
2022-08-23T15:46:58.183Z,35.46
2022-08-23T15:49:27.876Z,35.42
2022-08-23T15:51:54.303Z,35.37
2022-08-23T15:54:21.291Z,35.35
2022-08-23T15:56:50.313Z,35.31
2022-08-23T15:59:19.106Z,35.28
2022-08-23T16:01:48.141Z,35.28
2022-08-23T16:04:14.598Z,35.29
2022-08-23T16:06:41.347Z,35.32
2022-08-23T16:09:16.537Z,35.37
2022-08-23T16:11:43.503Z,35.43
2022-08-23T16:14:10.599Z,35.51
2022-08-23T16:16:39.642Z,35.60
2022-08-23T16:19:07.168Z,35.69
2022-08-23T16:21:36.256Z,35.81
2022-08-23T16:24:03.090Z,35.95
2022-08-23T16:26:35.283Z,36.08
2022-08-23T16:29:04.239Z,36.21
2022-08-23T16:31:37.658Z,36.35
2022-08-23T16:34:09.249Z,36.50
2022-08-23T16:36:36.367Z,36.64
2022-08-23T16:39:03.630Z,36.75
2022-08-23T16:41:30.116Z,36.86
2022-08-23T16:43:56.602Z,36.97
2022-08-23T16:46:24.096Z,37.06
2022-08-23T16:48:50.794Z,37.15
2022-08-23T16:51:17.878Z,37.23
2022-08-23T16:53:44.615Z,37.32
2022-08-23T16:56:22.144Z,37.42
2022-08-23T16:58:48.731Z,37.47
2022-08-23T17:01:19.628Z,37.54
2022-08-23T17:03:46.410Z,37.59
2022-08-23T17:06:12.870Z,37.62
2022-08-23T17:08:39.514Z,37.64
2022-08-23T17:11:09.920Z,37.67
2022-08-23T17:13:36.450Z,37.72
2022-08-23T17:16:04.138Z,37.76
2022-08-23T17:18:31.265Z,37.80
2022-08-23T17:20:58.010Z,37.85
2022-08-23T17:23:24.554Z,37.90
2022-08-23T17:25:51.092Z,37.93
2022-08-23T17:28:17.822Z,37.95
2022-08-23T17:30:44.398Z,37.97
2022-08-23T17:33:10.967Z,37.99
2022-08-23T17:35:39.139Z,38.02
2022-08-23T17:38:06.591Z,38.03
2022-08-23T17:40:39.762Z,38.03
2022-08-23T17:43:06.835Z,38.01
2022-08-23T17:45:42.630Z,37.96
2022-08-23T17:48:10.851Z,37.92
2022-08-23T17:50:38.138Z,37.85
2022-08-23T17:53:05.406Z,37.76
2022-08-23T17:55:33.782Z,37.65
2022-08-23T17:58:04.185Z,37.52
2022-08-23T18:00:33.305Z,37.36
2022-08-23T18:03:00.021Z,37.17
2022-08-23T18:05:29.400Z,36.97
2022-08-23T18:07:55.926Z,36.76
2022-08-23T18:10:23.400Z,36.53
2022-08-23T18:12:49.842Z,36.30
2022-08-23T18:15:17.434Z,36.08
2022-08-23T18:17:44.931Z,35.85
2022-08-23T18:20:12.245Z,35.64
2022-08-23T18:22:40.061Z,35.40
2022-08-23T18:25:08.934Z,35.19
2022-08-23T18:27:54.869Z,34.96
2022-08-23T18:30:21.682Z,34.72
2022-08-23T18:32:48.182Z,34.52
2022-08-23T18:35:15.015Z,34.31
2022-08-23T18:37:41.946Z,34.13
2022-08-23T18:40:09.845Z,33.94
2022-08-23T18:42:37.563Z,33.78
2022-08-23T18:45:05.839Z,33.61
2022-08-23T18:47:32.910Z,33.45
2022-08-23T18:49:59.542Z,33.28
2022-08-23T18:52:27.603Z,33.14
2022-08-23T18:54:57.546Z,32.97
2022-08-23T18:57:24.031Z,32.82
2022-08-23T18:59:50.534Z,32.67
2022-08-23T19:02:17.670Z,32.53
2022-08-23T19:04:45.144Z,32.39
2022-08-23T19:07:12.458Z,32.26
2022-08-23T19:09:38.929Z,32.14
2022-08-23T19:12:06.373Z,32.04
2022-08-23T19:14:35.657Z,31.92
2022-08-23T19:17:08.066Z,31.81
2022-08-23T19:19:36.567Z,31.68
2022-08-23T19:22:03.723Z,31.57
2022-08-23T19:24:30.288Z,31.44
2022-08-23T19:26:56.883Z,31.33
2022-08-23T19:29:23.544Z,31.22
2022-08-23T19:31:50.299Z,31.11
2022-08-23T19:34:19.366Z,31.01
2022-08-23T19:37:00.339Z,30.92
2022-08-23T19:39:28.489Z,30.82
2022-08-23T19:41:55.205Z,30.73
2022-08-23T19:44:22.067Z,30.66
2022-08-23T19:46:48.843Z,30.58
2022-08-23T19:49:15.829Z,30.51
2022-08-23T19:51:43.644Z,30.44
2022-08-23T19:54:12.521Z,30.37
2022-08-23T19:56:49.079Z,30.33
2022-08-23T19:59:20.399Z,30.27
2022-08-23T20:01:49.676Z,30.19
2022-08-23T20:04:17.114Z,30.13
2022-08-23T20:06:43.645Z,30.07
2022-08-23T20:09:11.215Z,30.01
2022-08-23T20:11:38.215Z,29.94
2022-08-23T20:14:05.931Z,29.87
2022-08-23T20:16:32.967Z,29.81
2022-08-23T20:18:59.752Z,29.75
2022-08-23T20:21:27.329Z,29.67
2022-08-23T20:24:00.988Z,29.61
2022-08-23T20:26:33.920Z,29.57
2022-08-23T20:29:01.985Z,29.49
2022-08-23T20:31:32.469Z,29.43
2022-08-23T20:33:59.856Z,29.36
2022-08-23T20:36:29.996Z,29.31
2022-08-23T20:39:00.270Z,29.26
2022-08-23T20:41:29.011Z,29.23
2022-08-23T20:43:56.814Z,29.18
2022-08-23T20:46:23.525Z,29.13
2022-08-23T20:48:51.549Z,29.10
2022-08-23T20:51:19.683Z,29.07
2022-08-23T20:53:46.108Z,29.04
2022-08-23T20:56:12.685Z,29.00
2022-08-23T20:58:39.192Z,28.96
2022-08-23T21:01:06.153Z,28.91
2022-08-23T21:03:36.785Z,28.88
2022-08-23T21:06:16.657Z,28.85
2022-08-23T21:08:47.819Z,28.79
2022-08-23T21:11:15.338Z,28.76
2022-08-23T21:13:44.065Z,28.72
2022-08-23T21:16:12.013Z,28.68
2022-08-23T21:18:38.551Z,28.65
2022-08-23T21:21:05.070Z,28.60
2022-08-23T21:23:31.618Z,28.57
2022-08-23T21:25:58.637Z,28.50
2022-08-23T21:28:25.884Z,28.47
2022-08-23T21:30:52.533Z,28.44
2022-08-23T21:33:21.860Z,28.42
2022-08-23T21:35:48.970Z,28.40
2022-08-23T21:38:15.783Z,28.39
2022-08-23T21:40:43.356Z,28.38
2022-08-23T21:43:09.846Z,28.35
2022-08-23T21:45:36.288Z,28.34
2022-08-23T21:48:08.128Z,28.33
2022-08-23T21:50:34.541Z,28.33
2022-08-23T21:53:01.605Z,28.31
2022-08-23T21:55:36.026Z,28.29
2022-08-23T21:58:03.311Z,28.24
2022-08-23T22:00:29.834Z,28.20
2022-08-23T22:02:56.435Z,28.16
2022-08-23T22:05:23.181Z,28.12
2022-08-23T22:07:50.017Z,28.08
2022-08-23T22:10:16.444Z,28.05
2022-08-23T22:12:43.270Z,28.01
2022-08-23T22:15:10.424Z,27.97
2022-08-23T22:17:37.435Z,27.94
2022-08-23T22:20:06.599Z,27.92
2022-08-23T22:22:33.483Z,27.89
2022-08-23T22:25:01.306Z,27.88
2022-08-23T22:27:28.363Z,27.85
2022-08-23T22:29:55.510Z,27.83
2022-08-23T22:32:22.840Z,27.80
2022-08-23T22:34:49.378Z,27.77
2022-08-23T22:37:16.132Z,27.74
2022-08-23T22:39:42.638Z,27.69
2022-08-23T22:42:09.889Z,27.66
2022-08-23T22:44:36.602Z,27.61
2022-08-23T22:47:03.087Z,27.57
2022-08-23T22:49:30.061Z,27.54
2022-08-23T22:51:57.592Z,27.51
2022-08-23T22:54:25.036Z,27.47
2022-08-23T22:56:53.225Z,27.44
2022-08-23T22:59:22.605Z,27.42
2022-08-23T23:01:56.266Z,27.39
2022-08-23T23:04:26.354Z,27.36
2022-08-23T23:06:54.085Z,27.32
2022-08-23T23:09:20.673Z,27.29
2022-08-23T23:11:47.268Z,27.24
2022-08-23T23:14:16.121Z,27.21
2022-08-23T23:16:43.495Z,27.15
2022-08-23T23:19:28.959Z,27.11
2022-08-23T23:21:57.294Z,27.07
2022-08-23T23:24:28.667Z,27.03
2022-08-23T23:26:55.775Z,26.99
2022-08-23T23:29:22.865Z,26.96
2022-08-23T23:31:49.497Z,26.91
2022-08-23T23:34:16.113Z,26.89
2022-08-23T23:36:43.044Z,26.86
2022-08-23T23:39:14.347Z,26.86
2022-08-23T23:41:41.024Z,26.83
2022-08-23T23:44:07.561Z,26.81
2022-08-23T23:46:35.037Z,26.80
2022-08-23T23:49:01.486Z,26.78
2022-08-23T23:51:30.142Z,26.76
2022-08-23T23:53:58.037Z,26.73
2022-08-23T23:56:27.362Z,26.71
2022-08-23T23:58:54.686Z,26.70
